createdAt,value
2018-06-28T00:00:11.978Z,99.50
2018-06-28T00:02:41.161Z,99.60
2018-06-28T00:05:11.450Z,99.90
2018-06-28T00:07:40.650Z,99.90
2018-06-28T00:10:09.954Z,99.90
2018-06-28T00:12:39.076Z,99.90
2018-06-28T00:15:08.339Z,99.90
2018-06-28T00:17:37.445Z,99.90
2018-06-28T00:20:07.078Z,99.90
2018-06-28T00:22:36.183Z,99.90
2018-06-28T00:25:05.350Z,99.90
2018-06-28T00:27:34.440Z,99.90
2018-06-28T00:30:04.235Z,99.90
2018-06-28T00:32:33.348Z,99.90
2018-06-28T00:35:02.465Z,99.90
2018-06-28T00:37:32.493Z,99.90
2018-06-28T00:40:02.398Z,99.90
2018-06-28T00:42:31.508Z,99.90
2018-06-28T00:45:00.570Z,99.90
2018-06-28T00:47:29.663Z,99.90
2018-06-28T00:49:58.763Z,99.90
2018-06-28T00:52:27.818Z,99.90
2018-06-28T00:54:57.659Z,99.90
2018-06-28T00:57:26.742Z,99.90
2018-06-28T00:59:55.790Z,99.90
2018-06-28T01:02:25.001Z,99.90
2018-06-28T01:04:54.187Z,99.90
2018-06-28T01:09:52.155Z,99.90
2018-06-28T01:12:21.227Z,99.90
2018-06-28T01:14:50.295Z,99.90
2018-06-28T01:17:20.012Z,99.90
2018-06-28T01:19:49.262Z,99.90
2018-06-28T01:22:18.347Z,99.90
2018-06-28T01:24:47.490Z,99.90
2018-06-28T01:27:16.627Z,99.90
2018-06-28T01:29:48.807Z,99.90
2018-06-28T01:32:19.194Z,99.90
2018-06-28T01:34:48.243Z,99.90
2018-06-28T01:37:17.472Z,99.90
2018-06-28T01:39:47.157Z,99.90
2018-06-28T01:42:48.811Z,99.90
2018-06-28T01:45:18.280Z,99.90
2018-06-28T01:47:47.502Z,99.90
2018-06-28T01:50:16.746Z,99.90
2018-06-28T01:52:46.066Z,99.90
2018-06-28T01:55:15.301Z,99.90
2018-06-28T01:57:45.286Z,99.90
2018-06-28T02:00:14.451Z,99.90
2018-06-28T02:02:43.947Z,99.90
2018-06-28T02:05:13.003Z,99.90
2018-06-28T02:07:42.131Z,99.90
2018-06-28T02:10:11.310Z,99.90
2018-06-28T02:12:40.330Z,99.90
2018-06-28T02:15:09.732Z,99.90
2018-06-28T02:20:07.951Z,99.90
2018-06-28T02:22:37.760Z,99.90
2018-06-28T02:25:06.948Z,99.90
2018-06-28T02:27:36.025Z,99.90
2018-06-28T02:30:05.488Z,99.90
2018-06-28T02:32:34.551Z,99.90
2018-06-28T02:35:03.846Z,99.90
2018-06-28T02:37:34.255Z,99.90
2018-06-28T02:40:03.811Z,99.90
2018-06-28T02:42:33.076Z,99.90
2018-06-28T02:45:02.909Z,99.90
2018-06-28T02:47:32.088Z,99.90
2018-06-28T02:50:02.081Z,99.90
2018-06-28T02:52:31.212Z,99.90
2018-06-28T02:55:01.472Z,99.90
2018-06-28T02:57:30.859Z,99.90
2018-06-28T03:00:00.190Z,99.90
2018-06-28T03:02:29.476Z,99.90
2018-06-28T03:04:58.935Z,99.90
2018-06-28T03:07:28.104Z,99.90
2018-06-28T03:09:57.363Z,99.90
2018-06-28T03:12:29.478Z,99.90
2018-06-28T03:14:58.870Z,99.90
2018-06-28T03:17:27.928Z,99.90
2018-06-28T03:19:57.468Z,99.90
2018-06-28T03:22:26.921Z,99.90
2018-06-28T03:24:57.032Z,99.90
2018-06-28T03:27:26.298Z,99.90
2018-06-28T03:29:55.489Z,99.90
2018-06-28T03:32:26.101Z,99.90
2018-06-28T03:34:55.144Z,99.90
2018-06-28T03:37:24.433Z,99.90
2018-06-28T03:39:53.502Z,99.90
2018-06-28T03:42:22.577Z,99.90
2018-06-28T03:44:51.775Z,99.90
2018-06-28T03:47:21.068Z,99.90
2018-06-28T03:49:50.215Z,99.90
2018-06-28T03:52:19.522Z,99.90
2018-06-28T03:54:48.570Z,99.90
2018-06-28T03:57:18.153Z,99.90
2018-06-28T03:59:47.188Z,99.90
2018-06-28T04:02:16.331Z,99.90
2018-06-28T04:04:45.600Z,99.90
2018-06-28T04:07:14.810Z,99.90
2018-06-28T04:12:12.943Z,99.90
2018-06-28T04:14:42.801Z,99.90
2018-06-28T04:17:11.872Z,99.90
2018-06-28T04:19:40.910Z,99.90
2018-06-28T04:22:11.107Z,99.90
2018-06-28T04:24:40.304Z,99.90
2018-06-28T04:27:09.487Z,99.90
2018-06-28T04:29:38.744Z,99.90
2018-06-28T04:32:07.930Z,99.90
2018-06-28T04:34:37.119Z,99.90
2018-06-28T04:37:06.212Z,99.90
2018-06-28T04:39:35.273Z,99.90
2018-06-28T04:42:04.885Z,99.90
2018-06-28T04:44:35.144Z,99.90
2018-06-28T04:47:04.361Z,99.90
2018-06-28T04:49:34.316Z,99.90
2018-06-28T04:52:03.360Z,99.90
2018-06-28T04:54:34.129Z,99.90
2018-06-28T04:57:04.074Z,99.90
2018-06-28T04:59:33.345Z,99.90
2018-06-28T05:02:02.593Z,99.90
2018-06-28T05:04:31.788Z,99.90
2018-06-28T05:07:01.011Z,99.90
2018-06-28T05:09:30.252Z,99.90
2018-06-28T05:11:59.698Z,99.90
2018-06-28T05:14:28.819Z,99.90
2018-06-28T05:16:58.011Z,99.90
2018-06-28T05:19:27.149Z,99.90
2018-06-28T05:21:56.405Z,99.90
2018-06-28T05:24:32.000Z,99.90
2018-06-28T05:27:01.197Z,99.90
2018-06-28T05:29:30.290Z,99.90
2018-06-28T05:31:59.953Z,99.90
2018-06-28T05:34:29.029Z,99.90
2018-06-28T05:36:58.204Z,99.90
2018-06-28T05:39:27.287Z,99.90
2018-06-28T05:41:56.431Z,99.90
2018-06-28T05:44:25.497Z,99.90
2018-06-28T05:46:54.719Z,99.90
2018-06-28T05:49:24.340Z,99.90
2018-06-28T05:51:53.484Z,99.90
2018-06-28T05:54:23.565Z,99.90
2018-06-28T05:56:52.663Z,99.90
2018-06-28T05:59:21.868Z,99.90
2018-06-28T06:01:51.356Z,99.90
2018-06-28T06:04:20.599Z,99.90
2018-06-28T06:06:49.761Z,99.90
2018-06-28T06:09:19.254Z,99.90
2018-06-28T06:11:48.699Z,99.90
2018-06-28T06:14:17.780Z,99.90
2018-06-28T06:16:47.731Z,99.90
2018-06-28T06:19:16.926Z,99.90
2018-06-28T06:21:46.100Z,99.90
2018-06-28T06:24:15.985Z,99.90
2018-06-28T06:26:45.165Z,99.90
2018-06-28T06:31:43.156Z,99.90
2018-06-28T06:34:12.702Z,99.90
2018-06-28T06:36:42.031Z,99.90
2018-06-28T06:39:11.972Z,99.90
2018-06-28T06:41:41.684Z,99.90
2018-06-28T06:44:10.830Z,99.90
2018-06-28T06:46:40.008Z,99.90
2018-06-28T06:49:09.453Z,99.90
2018-06-28T06:51:38.761Z,99.90
2018-06-28T06:54:08.543Z,99.90
2018-06-28T06:56:38.147Z,99.90
2018-06-28T06:59:07.595Z,99.90
2018-06-28T07:01:37.044Z,99.90
2018-06-28T07:04:06.119Z,99.90
2018-06-28T07:06:35.441Z,99.90
2018-06-28T07:09:08.844Z,99.90
2018-06-28T07:11:38.186Z,99.90
2018-06-28T07:14:08.402Z,99.90
2018-06-28T07:16:37.586Z,99.90
2018-06-28T07:19:06.806Z,99.90
2018-06-28T07:21:36.106Z,99.90
2018-06-28T07:24:05.525Z,99.90
2018-06-28T07:26:34.843Z,99.90
2018-06-28T07:29:04.337Z,99.50
2018-06-28T07:31:33.714Z,98.50
2018-06-28T07:34:02.941Z,98.60
2018-06-28T07:36:32.300Z,98.60
2018-06-28T07:39:01.504Z,98.80
2018-06-28T07:41:30.588Z,98.80
2018-06-28T07:43:59.604Z,99.00
2018-06-28T07:46:28.811Z,98.70
2018-06-28T07:48:58.095Z,98.10
2018-06-28T07:51:27.641Z,97.10
2018-06-28T07:53:56.971Z,96.90
2018-06-28T07:56:26.861Z,96.10
2018-06-28T07:58:55.971Z,96.20
2018-06-28T08:01:25.216Z,96.20
2018-06-28T08:03:54.332Z,96.10
2018-06-28T08:06:24.041Z,95.10
2018-06-28T08:08:53.215Z,95.50
2018-06-28T08:11:22.328Z,94.90
2018-06-28T08:13:51.350Z,94.60
2018-06-28T08:16:20.470Z,94.80
2018-06-28T08:18:49.790Z,93.80
2018-06-28T08:21:19.042Z,92.90
2018-06-28T08:23:48.423Z,92.10
2018-06-28T08:26:17.865Z,92.40
2018-06-28T08:28:47.091Z,91.60
2018-06-28T08:31:16.581Z,92.00
2018-06-28T08:33:45.891Z,91.20
2018-06-28T08:36:15.015Z,90.80
2018-06-28T08:38:44.202Z,90.50
2018-06-28T08:41:13.291Z,90.40
2018-06-28T08:43:42.368Z,89.00
2018-06-28T08:46:11.673Z,85.90
2018-06-28T08:48:40.848Z,86.00
2018-06-28T08:51:09.944Z,83.50
2018-06-28T08:53:42.563Z,84.70
2018-06-28T08:56:11.647Z,82.40
2018-06-28T08:58:40.836Z,81.90
2018-06-28T09:01:10.668Z,82.00
2018-06-28T09:03:40.198Z,80.50
2018-06-28T09:06:09.292Z,78.10
2018-06-28T09:08:38.359Z,79.10
2018-06-28T09:11:07.418Z,78.60
2018-06-28T09:13:36.503Z,78.30
2018-06-28T09:16:05.971Z,77.90
2018-06-28T09:18:35.092Z,77.20
2018-06-28T09:21:04.180Z,77.20
2018-06-28T09:23:33.587Z,77.10
2018-06-28T09:26:02.691Z,75.90
2018-06-28T09:28:31.853Z,75.80
2018-06-28T09:31:01.070Z,75.80
2018-06-28T09:35:59.048Z,70.20
2018-06-28T09:38:28.445Z,71.80
2018-06-28T09:40:57.478Z,69.60
2018-06-28T09:43:27.037Z,68.70
2018-06-28T09:45:56.096Z,70.80
2018-06-28T09:48:25.279Z,67.50
2018-06-28T09:50:54.680Z,67.50
2018-06-28T09:53:23.745Z,66.30
2018-06-28T09:55:52.893Z,67.00
2018-06-28T09:58:22.285Z,67.00
2018-06-28T10:00:51.520Z,66.90
2018-06-28T10:03:20.731Z,66.90
2018-06-28T10:05:49.860Z,65.70
2018-06-28T10:08:19.134Z,63.00
2018-06-28T10:10:48.291Z,65.70
2018-06-28T10:13:17.890Z,64.10
2018-06-28T10:15:46.911Z,63.60
2018-06-28T10:18:16.006Z,63.80
2018-06-28T10:20:45.294Z,63.90
2018-06-28T10:23:14.797Z,63.40
2018-06-28T10:25:43.909Z,64.70
2018-06-28T10:28:13.055Z,65.80
2018-06-28T10:30:42.299Z,60.90
2018-06-28T10:33:11.364Z,59.80
2018-06-28T10:35:41.009Z,58.80
2018-06-28T10:38:10.172Z,58.40
2018-06-28T10:40:39.418Z,58.30
2018-06-28T10:43:08.623Z,59.30
2018-06-28T10:45:37.894Z,58.70
2018-06-28T10:48:07.151Z,58.10
2018-06-28T10:50:36.389Z,59.50
2018-06-28T10:53:06.524Z,58.60
2018-06-28T10:55:36.203Z,58.00
2018-06-28T10:58:05.269Z,57.40
2018-06-28T11:00:34.530Z,57.60
2018-06-28T11:03:04.683Z,57.80
2018-06-28T11:05:33.932Z,57.40
2018-06-28T11:08:03.530Z,57.20
2018-06-28T11:10:32.692Z,57.60
2018-06-28T11:15:30.505Z,57.50
2018-06-28T11:17:59.753Z,56.80
2018-06-28T11:20:29.245Z,56.80
2018-06-28T11:22:58.371Z,55.60
2018-06-28T11:25:27.462Z,56.00
2018-06-28T11:27:56.534Z,56.30
2018-06-28T11:30:25.755Z,56.10
2018-06-28T11:32:54.790Z,54.60
2018-06-28T11:35:23.837Z,55.10
2018-06-28T11:37:53.085Z,55.00
2018-06-28T11:40:22.385Z,55.90
2018-06-28T11:42:51.943Z,56.40
2018-06-28T11:45:21.058Z,55.20
2018-06-28T11:47:50.348Z,53.90
2018-06-28T11:50:19.480Z,52.90
2018-06-28T11:52:48.619Z,52.20
2018-06-28T11:55:18.087Z,51.60
2018-06-28T11:57:47.286Z,50.50
2018-06-28T12:00:16.601Z,51.50
2018-06-28T12:02:45.713Z,51.00
2018-06-28T12:05:15.103Z,51.00
2018-06-28T12:07:44.507Z,51.10
2018-06-28T12:10:13.621Z,49.50
2018-06-28T12:12:42.698Z,50.00
2018-06-28T12:15:11.831Z,50.30
2018-06-28T12:17:41.024Z,51.10
2018-06-28T12:20:10.380Z,50.10
2018-06-28T12:22:39.553Z,50.40
2018-06-28T12:25:08.704Z,50.60
2018-06-28T12:27:38.019Z,51.00
2018-06-28T12:30:07.123Z,50.80
2018-06-28T12:32:36.978Z,51.30
2018-06-28T12:35:06.371Z,52.40
2018-06-28T12:37:35.409Z,52.80
2018-06-28T12:40:05.013Z,52.50
2018-06-28T12:42:34.199Z,53.20
2018-06-28T12:45:03.735Z,52.40
2018-06-28T12:47:48.061Z,51.20
2018-06-28T12:50:17.582Z,49.90
2018-06-28T12:52:51.911Z,51.70
2018-06-28T12:55:21.571Z,51.70
2018-06-28T12:57:51.032Z,53.10
2018-06-28T13:00:20.101Z,52.60
2018-06-28T13:02:49.273Z,52.00
2018-06-28T13:05:18.581Z,52.60
2018-06-28T13:07:54.210Z,53.50
2018-06-28T13:10:23.312Z,52.90
2018-06-28T13:12:53.142Z,53.90
2018-06-28T13:15:22.392Z,54.00
2018-06-28T13:17:52.201Z,52.70
2018-06-28T13:20:21.374Z,52.80
2018-06-28T13:22:50.665Z,54.70
2018-06-28T13:25:19.961Z,52.50
2018-06-28T13:27:50.283Z,52.60
2018-06-28T13:30:19.457Z,51.90
2018-06-28T13:32:48.677Z,52.00
2018-06-28T13:35:18.796Z,51.70
2018-06-28T13:37:48.207Z,49.80
2018-06-28T13:40:17.308Z,48.60
2018-06-28T13:42:46.435Z,47.80
2018-06-28T13:45:15.602Z,49.30
2018-06-28T13:47:45.025Z,49.50
2018-06-28T13:50:14.499Z,49.60
2018-06-28T13:52:44.392Z,50.50
2018-06-28T13:55:13.684Z,51.20
2018-06-28T13:57:42.827Z,51.90
2018-06-28T14:00:12.024Z,51.90
2018-06-28T14:02:41.206Z,50.90
2018-06-28T14:05:10.539Z,51.60
2018-06-28T14:07:39.736Z,50.30
2018-06-28T14:10:09.025Z,50.50
2018-06-28T14:12:38.099Z,49.60
2018-06-28T14:15:07.580Z,48.80
2018-06-28T14:17:37.532Z,48.30
2018-06-28T14:20:09.069Z,48.40
2018-06-28T14:22:38.341Z,49.60
2018-06-28T14:25:07.601Z,48.60
2018-06-28T14:27:36.674Z,49.00
2018-06-28T14:30:06.899Z,48.20
2018-06-28T14:32:36.198Z,47.50
2018-06-28T14:35:05.563Z,47.80
2018-06-28T14:37:34.731Z,47.80
2018-06-28T14:40:04.812Z,47.70
2018-06-28T14:42:33.883Z,48.30
2018-06-28T14:45:03.281Z,48.70
2018-06-28T14:47:32.606Z,49.20
2018-06-28T14:50:01.740Z,50.00
2018-06-28T14:52:31.033Z,48.30
2018-06-28T14:55:00.160Z,46.60
2018-06-28T14:57:30.341Z,45.60
2018-06-28T14:59:59.630Z,43.50
2018-06-28T15:02:28.813Z,42.70
2018-06-28T15:04:58.082Z,43.00
2018-06-28T15:07:27.272Z,43.60
2018-06-28T15:09:56.388Z,45.80
2018-06-28T15:12:25.462Z,47.40
2018-06-28T15:14:54.617Z,47.40
2018-06-28T15:17:23.758Z,46.90
2018-06-28T15:19:53.301Z,46.30
2018-06-28T15:22:22.550Z,44.80
2018-06-28T15:27:20.749Z,42.00
2018-06-28T15:29:49.757Z,41.00
2018-06-28T15:32:18.810Z,41.70
2018-06-28T15:34:47.919Z,42.10
2018-06-28T15:37:17.286Z,42.20
2018-06-28T15:39:46.387Z,41.50
2018-06-28T15:42:15.539Z,40.80
2018-06-28T15:44:44.629Z,41.30
2018-06-28T15:47:13.972Z,40.10
2018-06-28T15:49:43.101Z,39.50
2018-06-28T15:52:12.268Z,39.70
2018-06-28T15:54:41.591Z,40.40
2018-06-28T15:57:10.858Z,41.10
2018-06-28T15:59:40.087Z,41.60
2018-06-28T16:02:09.327Z,40.20
2018-06-28T16:04:38.508Z,39.40
2018-06-28T16:07:07.600Z,38.90
2018-06-28T16:09:36.843Z,39.70
2018-06-28T16:12:06.159Z,38.80
2018-06-28T16:14:35.328Z,39.70
2018-06-28T16:17:04.714Z,37.40
2018-06-28T16:19:34.665Z,38.10
2018-06-28T16:22:03.755Z,38.70
2018-06-28T16:24:33.192Z,40.10
2018-06-28T16:27:02.508Z,40.70
2018-06-28T16:29:31.649Z,41.30
2018-06-28T16:32:00.902Z,40.80
2018-06-28T16:34:30.041Z,40.20
2018-06-28T16:36:59.131Z,39.70
2018-06-28T16:39:28.878Z,40.50
2018-06-28T16:41:58.093Z,40.10
2018-06-28T16:46:56.173Z,40.80
2018-06-28T16:49:25.525Z,39.00
2018-06-28T16:51:54.596Z,37.40
2018-06-28T16:54:23.884Z,37.80
2018-06-28T16:56:53.010Z,36.60
2018-06-28T16:59:22.050Z,35.50
2018-06-28T17:01:51.100Z,36.00
2018-06-28T17:04:20.192Z,35.00
2018-06-28T17:06:49.237Z,35.40
2018-06-28T17:09:18.416Z,35.40
2018-06-28T17:11:47.725Z,36.00
2018-06-28T17:14:16.778Z,37.20
2018-06-28T17:16:45.966Z,38.00
2018-06-28T17:19:15.177Z,37.80
2018-06-28T17:21:44.271Z,37.30
2018-06-28T17:24:13.671Z,36.30
2018-06-28T17:26:42.867Z,36.60
2018-06-28T17:29:12.055Z,35.80
2018-06-28T17:31:41.266Z,35.70
2018-06-28T17:34:10.566Z,36.10
2018-06-28T17:36:39.582Z,36.20
2018-06-28T17:39:09.351Z,35.10
2018-06-28T17:41:38.470Z,35.40
2018-06-28T17:44:07.676Z,35.70
2018-06-28T17:46:36.829Z,35.70
2018-06-28T17:49:06.178Z,35.20
2018-06-28T17:51:35.301Z,35.60
2018-06-28T17:54:04.568Z,35.50
2018-06-28T17:56:33.763Z,35.40
2018-06-28T17:59:02.936Z,35.50
2018-06-28T18:01:31.996Z,35.10
2018-06-28T18:04:01.263Z,35.30
2018-06-28T18:06:30.489Z,36.20
2018-06-28T18:08:59.698Z,36.80
2018-06-28T18:11:28.850Z,37.40
2018-06-28T18:13:58.016Z,40.10
2018-06-28T18:16:27.889Z,41.10
2018-06-28T18:18:57.204Z,43.10
2018-06-28T18:21:26.410Z,44.70
2018-06-28T18:23:56.199Z,45.70
2018-06-28T18:26:25.429Z,46.60
2018-06-28T18:28:54.932Z,47.60
2018-06-28T18:31:24.128Z,48.50
2018-06-28T18:33:53.228Z,48.90
2018-06-28T18:36:22.426Z,49.40
2018-06-28T18:38:51.691Z,50.30
2018-06-28T18:41:21.004Z,50.40
2018-06-28T18:43:50.127Z,50.50
2018-06-28T18:46:19.182Z,51.00
2018-06-28T18:48:48.323Z,51.50
2018-06-28T18:53:46.280Z,52.60
2018-06-28T18:56:15.364Z,53.10
2018-06-28T18:58:44.997Z,53.30
2018-06-28T19:01:14.300Z,53.80
2018-06-28T19:03:43.622Z,54.30
2018-06-28T19:08:41.408Z,54.50
2018-06-28T19:11:10.464Z,55.00
2018-06-28T19:13:44.754Z,55.40
2018-06-28T19:16:19.196Z,55.50
2018-06-28T19:18:48.465Z,55.90
2018-06-28T19:21:22.836Z,56.30
2018-06-28T19:23:52.786Z,56.40
2018-06-28T19:26:21.875Z,56.70
2018-06-28T19:28:51.200Z,57.00
2018-06-28T19:31:25.829Z,57.30
2018-06-28T19:33:55.070Z,57.40
2018-06-28T19:36:24.300Z,57.80
2018-06-28T19:38:59.430Z,58.10
2018-06-28T19:41:33.970Z,58.30
2018-06-28T19:44:03.197Z,58.40
2018-06-28T19:46:33.122Z,58.70
2018-06-28T19:49:06.542Z,59.10
2018-06-28T19:51:41.062Z,59.30
2018-06-28T19:54:10.551Z,59.60
2018-06-28T19:56:39.557Z,60.10
2018-06-28T19:59:08.674Z,60.50
2018-06-28T20:01:43.147Z,60.90
2018-06-28T20:04:13.830Z,61.10
2018-06-28T20:06:44.363Z,62.30
2018-06-28T20:09:13.570Z,62.30
2018-06-28T20:11:42.935Z,62.40
2018-06-28T20:14:17.339Z,62.60
2018-06-28T20:16:51.811Z,62.70
2018-06-28T20:19:26.315Z,63.30
2018-06-28T20:21:55.390Z,63.70
2018-06-28T20:24:24.742Z,64.40
2018-06-28T20:26:59.166Z,64.80
2018-06-28T20:32:08.411Z,66.60
2018-06-28T20:37:06.125Z,67.50
2018-06-28T20:39:35.331Z,68.20
2018-06-28T20:42:04.394Z,68.80
2018-06-28T20:44:33.591Z,69.30
2018-06-28T20:47:02.846Z,70.30
2018-06-28T20:49:32.208Z,71.00
2018-06-28T20:52:01.328Z,72.10
2018-06-28T20:54:30.506Z,73.00
2018-06-28T20:56:59.617Z,73.90
2018-06-28T20:59:28.807Z,75.70
2018-06-28T21:01:58.286Z,76.70
2018-06-28T21:04:27.763Z,78.30
2018-06-28T21:06:57.372Z,80.10
2018-06-28T21:11:55.220Z,83.00
2018-06-28T21:14:24.246Z,84.70
2018-06-28T21:16:53.415Z,86.00
2018-06-28T21:19:22.728Z,87.60
2018-06-28T21:21:51.876Z,89.00
2018-06-28T21:24:20.941Z,90.00
2018-06-28T21:26:50.149Z,90.70
2018-06-28T21:29:19.611Z,91.50
2018-06-28T21:31:48.788Z,92.00
2018-06-28T21:34:17.948Z,92.40
2018-06-28T21:36:47.163Z,92.80
2018-06-28T21:39:16.626Z,93.50
2018-06-28T21:44:14.394Z,94.20
2018-06-28T21:46:43.402Z,94.50
2018-06-28T21:49:12.571Z,95.00
2018-06-28T21:51:41.649Z,95.50
2018-06-28T21:54:10.908Z,96.00
2018-06-28T21:56:40.313Z,96.30
2018-06-28T21:59:09.439Z,96.70
2018-06-28T22:01:42.961Z,96.90
2018-06-28T22:04:12.093Z,97.30
2018-06-28T22:06:41.360Z,97.80
2018-06-28T22:09:10.528Z,98.00
2018-06-28T22:11:39.747Z,98.40
2018-06-28T22:14:09.067Z,98.80
2018-06-28T22:16:38.159Z,99.00
2018-06-28T22:19:07.319Z,99.50
2018-06-28T22:21:36.738Z,99.70
2018-06-28T22:24:06.385Z,99.90
2018-06-28T22:26:35.560Z,99.90
2018-06-28T22:29:05.070Z,99.90
2018-06-28T22:31:34.981Z,99.90
2018-06-28T22:34:04.049Z,99.90
2018-06-28T22:36:33.275Z,99.90
2018-06-28T22:39:02.636Z,99.90
2018-06-28T22:41:31.690Z,99.90
2018-06-28T22:44:00.914Z,99.90
2018-06-28T22:46:29.950Z,99.90
2018-06-28T22:48:59.078Z,99.90
2018-06-28T22:51:28.459Z,99.90
2018-06-28T22:53:57.789Z,99.90
2018-06-28T22:56:27.308Z,99.90
2018-06-28T22:58:56.442Z,99.90
2018-06-28T23:01:25.619Z,99.90
2018-06-28T23:03:54.673Z,99.90
2018-06-28T23:06:24.942Z,99.90
2018-06-28T23:08:54.198Z,99.90
2018-06-28T23:11:23.439Z,99.90
2018-06-28T23:13:52.550Z,99.90
2018-06-28T23:16:21.651Z,99.90
2018-06-28T23:18:50.669Z,99.90
2018-06-28T23:21:19.726Z,99.90
2018-06-28T23:23:48.867Z,99.90
2018-06-28T23:26:18.807Z,99.90
2018-06-28T23:28:48.050Z,99.90
2018-06-28T23:31:17.303Z,99.90
2018-06-28T23:33:46.454Z,99.90
2018-06-28T23:36:15.816Z,99.90
2018-06-28T23:38:44.865Z,99.90
2018-06-28T23:41:14.006Z,99.90
2018-06-28T23:43:43.020Z,99.90
2018-06-28T23:46:13.201Z,99.90
2018-06-28T23:48:42.179Z,99.90
2018-06-28T23:51:11.535Z,99.90
2018-06-28T23:53:40.554Z,99.90
2018-06-28T23:56:09.616Z,99.90
2018-06-28T23:58:38.903Z,99.90
